sensor_id;sensor_type;location;lat;lon;timestamp;P1;durP1;ratioP1;P2;durP2;ratioP2
76393;SDS011;65216;51.090;-115.352;2024-01-11T00:00:25;19.00;;;2.00;;
76393;SDS011;65216;51.090;-115.352;2024-01-11T00:02:54;14.10;;;2.10;;
76393;SDS011;65216;51.090;-115.352;2024-01-11T00:05:21;15.30;;;1.70;;
76393;SDS011;65216;51.090;-115.352;2024-01-11T00:07:48;11.70;;;1.90;;
76393;SDS011;65216;51.090;-115.352;2024-01-11T00:10:19;12.20;;;2.00;;
76393;SDS011;65216;51.090;-115.352;2024-01-11T00:12:46;15.50;;;1.80;;
76393;SDS011;65216;51.090;-115.352;2024-01-11T00:15:14;18.40;;;1.80;;
76393;SDS011;65216;51.090;-115.352;2024-01-11T00:17:41;21.60;;;2.60;;
76393;SDS011;65216;51.090;-115.352;2024-01-11T00:20:09;13.20;;;1.70;;
76393;SDS011;65216;51.090;-115.352;2024-01-11T00:22:36;12.20;;;2.20;;
76393;SDS011;65216;51.090;-115.352;2024-01-11T00:25:04;20.00;;;2.20;;
76393;SDS011;65216;51.090;-115.352;2024-01-11T00:27:31;13.60;;;1.70;;
76393;SDS011;65216;51.090;-115.352;2024-01-11T00:29:58;14.20;;;1.70;;
76393;SDS011;65216;51.090;-115.352;2024-01-11T00:32:25;13.10;;;1.70;;
76393;SDS011;65216;51.090;-115.352;2024-01-11T00:34:53;11.90;;;1.80;;
76393;SDS011;65216;51.090;-115.352;2024-01-11T00:37:20;13.60;;;1.70;;
76393;SDS011;65216;51.090;-115.352;2024-01-11T00:39:47;11.80;;;1.60;;
76393;SDS011;65216;51.090;-115.352;2024-01-11T00:42:14;13.90;;;1.40;;
76393;SDS011;65216;51.090;-115.352;2024-01-11T00:44:41;15.60;;;1.70;;
76393;SDS011;65216;51.090;-115.352;2024-01-11T00:47:08;15.60;;;2.20;;
76393;SDS011;65216;51.090;-115.352;2024-01-11T00:49:36;14.50;;;1.60;;
76393;SDS011;65216;51.090;-115.352;2024-01-11T00:52:03;12.20;;;1.80;;
76393;SDS011;65216;51.090;-115.352;2024-01-11T00:54:30;12.90;;;1.40;;
76393;SDS011;65216;51.090;-115.352;2024-01-11T00:56:57;12.80;;;2.20;;
76393;SDS011;65216;51.090;-115.352;2024-01-11T00:59:24;16.90;;;1.80;;
76393;SDS011;65216;51.090;-115.352;2024-01-11T01:01:51;15.30;;;1.70;;
76393;SDS011;65216;51.090;-115.352;2024-01-11T01:04:18;19.40;;;2.10;;
76393;SDS011;65216;51.090;-115.352;2024-01-11T01:06:47;14.50;;;1.80;;
76393;SDS011;65216;51.090;-115.352;2024-01-11T01:09:14;18.70;;;1.80;;
76393;SDS011;65216;51.090;-115.352;2024-01-11T01:11:41;14.00;;;1.70;;
76393;SDS011;65216;51.090;-115.352;2024-01-11T01:14:07;17.40;;;2.10;;
76393;SDS011;65216;51.090;-115.352;2024-01-11T01:16:34;14.40;;;1.70;;
76393;SDS011;65216;51.090;-115.352;2024-01-11T01:19:03;17.60;;;2.00;;
76393;SDS011;65216;51.090;-115.352;2024-01-11T01:21:30;19.50;;;1.50;;
76393;SDS011;65216;51.090;-115.352;2024-01-11T01:23:57;17.40;;;1.80;;
76393;SDS011;65216;51.090;-115.352;2024-01-11T01:26:24;9.80;;;1.80;;
76393;SDS011;65216;51.090;-115.352;2024-01-11T01:28:51;16.70;;;2.10;;
76393;SDS011;65216;51.090;-115.352;2024-01-11T01:31:18;20.10;;;1.60;;
76393;SDS011;65216;51.090;-115.352;2024-01-11T01:33:46;18.30;;;1.40;;
76393;SDS011;65216;51.090;-115.352;2024-01-11T01:36:12;13.00;;;1.50;;
76393;SDS011;65216;51.090;-115.352;2024-01-11T01:38:39;15.50;;;1.70;;
76393;SDS011;65216;51.090;-115.352;2024-01-11T01:41:07;13.60;;;1.40;;
76393;SDS011;65216;51.090;-115.352;2024-01-11T01:43:33;16.00;;;1.20;;
76393;SDS011;65216;51.090;-115.352;2024-01-11T01:46:01;8.60;;;1.30;;
76393;SDS011;65216;51.090;-115.352;2024-01-11T01:48:29;13.90;;;1.40;;
76393;SDS011;65216;51.090;-115.352;2024-01-11T01:50:57;11.00;;;1.20;;
76393;SDS011;65216;51.090;-115.352;2024-01-11T01:53:24;14.80;;;1.40;;
76393;SDS011;65216;51.090;-115.352;2024-01-11T01:55:54;13.00;;;1.40;;
76393;SDS011;65216;51.090;-115.352;2024-01-11T01:58:24;9.50;;;1.20;;
76393;SDS011;65216;51.090;-115.352;2024-01-11T02:00:51;13.80;;;1.40;;
76393;SDS011;65216;51.090;-115.352;2024-01-11T02:03:19;12.70;;;1.60;;
76393;SDS011;65216;51.090;-115.352;2024-01-11T02:05:47;8.30;;;0.90;;
76393;SDS011;65216;51.090;-115.352;2024-01-11T02:08:16;16.30;;;1.80;;
76393;SDS011;65216;51.090;-115.352;2024-01-11T02:10:45;10.20;;;1.40;;
76393;SDS011;65216;51.090;-115.352;2024-01-11T02:13:13;14.90;;;1.70;;
76393;SDS011;65216;51.090;-115.352;2024-01-11T02:15:40;11.40;;;1.20;;
76393;SDS011;65216;51.090;-115.352;2024-01-11T02:18:10;8.80;;;1.20;;
76393;SDS011;65216;51.090;-115.352;2024-01-11T02:20:37;9.30;;;1.10;;
76393;SDS011;65216;51.090;-115.352;2024-01-11T02:23:10;11.70;;;1.40;;
76393;SDS011;65216;51.090;-115.352;2024-01-11T02:25:43;12.80;;;1.30;;
76393;SDS011;65216;51.090;-115.352;2024-01-11T02:28:10;15.50;;;1.20;;
76393;SDS011;65216;51.090;-115.352;2024-01-11T02:30:37;15.70;;;1.30;;
76393;SDS011;65216;51.090;-115.352;2024-01-11T02:33:05;8.00;;;1.20;;
76393;SDS011;65216;51.090;-115.352;2024-01-11T02:35:33;5.80;;;1.30;;
76393;SDS011;65216;51.090;-115.352;2024-01-11T02:38:01;10.30;;;1.30;;
76393;SDS011;65216;51.090;-115.352;2024-01-11T02:40:29;7.90;;;1.30;;
76393;SDS011;65216;51.090;-115.352;2024-01-11T02:42:56;11.20;;;1.00;;
76393;SDS011;65216;51.090;-115.352;2024-01-11T02:45:23;14.40;;;1.30;;
76393;SDS011;65216;51.090;-115.352;2024-01-11T02:47:51;10.30;;;1.20;;
76393;SDS011;65216;51.090;-115.352;2024-01-11T02:50:18;12.50;;;1.40;;
76393;SDS011;65216;51.090;-115.352;2024-01-11T02:52:45;13.30;;;0.90;;
76393;SDS011;65216;51.090;-115.352;2024-01-11T02:55:11;9.10;;;1.40;;
76393;SDS011;65216;51.090;-115.352;2024-01-11T02:57:39;10.30;;;1.10;;
76393;SDS011;65216;51.090;-115.352;2024-01-11T03:00:06;16.10;;;1.50;;
76393;SDS011;65216;51.090;-115.352;2024-01-11T03:02:33;6.50;;;1.30;;
76393;SDS011;65216;51.090;-115.352;2024-01-11T03:05:00;7.80;;;1.10;;
76393;SDS011;65216;51.090;-115.352;2024-01-11T03:07:29;9.30;;;1.20;;
76393;SDS011;65216;51.090;-115.352;2024-01-11T03:09:56;13.00;;;1.00;;
76393;SDS011;65216;51.090;-115.352;2024-01-11T03:12:23;10.70;;;1.30;;
76393;SDS011;65216;51.090;-115.352;2024-01-11T03:14:52;7.80;;;1.10;;
76393;SDS011;65216;51.090;-115.352;2024-01-11T03:17:18;10.70;;;1.20;;
76393;SDS011;65216;51.090;-115.352;2024-01-11T03:19:48;5.60;;;1.20;;
76393;SDS011;65216;51.090;-115.352;2024-01-11T03:22:15;8.20;;;1.10;;
76393;SDS011;65216;51.090;-115.352;2024-01-11T03:24:43;8.30;;;1.20;;
76393;SDS011;65216;51.090;-115.352;2024-01-11T03:27:09;10.60;;;1.30;;
76393;SDS011;65216;51.090;-115.352;2024-01-11T03:29:36;8.80;;;1.40;;
76393;SDS011;65216;51.090;-115.352;2024-01-11T03:32:03;8.00;;;1.10;;
76393;SDS011;65216;51.090;-115.352;2024-01-11T03:34:30;6.20;;;1.20;;
76393;SDS011;65216;51.090;-115.352;2024-01-11T03:36:57;8.80;;;1.10;;
76393;SDS011;65216;51.090;-115.352;2024-01-11T03:39:25;9.60;;;1.20;;
76393;SDS011;65216;51.090;-115.352;2024-01-11T03:41:54;7.80;;;1.20;;
76393;SDS011;65216;51.090;-115.352;2024-01-11T03:44:22;5.10;;;1.00;;
76393;SDS011;65216;51.090;-115.352;2024-01-11T03:46:49;7.70;;;1.00;;
76393;SDS011;65216;51.090;-115.352;2024-01-11T03:49:17;10.10;;;1.00;;
76393;SDS011;65216;51.090;-115.352;2024-01-11T03:51:46;9.80;;;1.00;;
76393;SDS011;65216;51.090;-115.352;2024-01-11T03:54:13;10.90;;;1.20;;
76393;SDS011;65216;51.090;-115.352;2024-01-11T03:56:39;5.00;;;0.80;;
76393;SDS011;65216;51.090;-115.352;2024-01-11T03:59:06;7.90;;;0.90;;
76393;SDS011;65216;51.090;-115.352;2024-01-11T04:01:37;9.10;;;1.20;;
76393;SDS011;65216;51.090;-115.352;2024-01-11T04:04:07;10.10;;;1.10;;
76393;SDS011;65216;51.090;-115.352;2024-01-11T04:06:36;8.50;;;1.00;;
76393;SDS011;65216;51.090;-115.352;2024-01-11T04:09:03;8.70;;;1.20;;
76393;SDS011;65216;51.090;-115.352;2024-01-11T04:11:30;11.60;;;1.70;;
76393;SDS011;65216;51.090;-115.352;2024-01-11T04:13:57;8.40;;;1.00;;
76393;SDS011;65216;51.090;-115.352;2024-01-11T04:16:24;7.80;;;1.00;;
76393;SDS011;65216;51.090;-115.352;2024-01-11T04:18:50;9.40;;;1.10;;
76393;SDS011;65216;51.090;-115.352;2024-01-11T04:21:24;10.80;;;1.40;;
76393;SDS011;65216;51.090;-115.352;2024-01-11T04:23:56;8.20;;;1.40;;
76393;SDS011;65216;51.090;-115.352;2024-01-11T04:26:23;10.70;;;1.30;;
76393;SDS011;65216;51.090;-115.352;2024-01-11T04:28:51;12.70;;;1.30;;
76393;SDS011;65216;51.090;-115.352;2024-01-11T04:31:19;15.50;;;1.50;;
76393;SDS011;65216;51.090;-115.352;2024-01-11T04:33:46;12.30;;;1.30;;
76393;SDS011;65216;51.090;-115.352;2024-01-11T04:36:13;9.20;;;1.10;;
76393;SDS011;65216;51.090;-115.352;2024-01-11T04:38:40;15.90;;;1.40;;
76393;SDS011;65216;51.090;-115.352;2024-01-11T04:41:08;11.00;;;1.30;;
76393;SDS011;65216;51.090;-115.352;2024-01-11T04:43:39;9.80;;;1.30;;
76393;SDS011;65216;51.090;-115.352;2024-01-11T04:46:19;11.50;;;1.30;;
76393;SDS011;65216;51.090;-115.352;2024-01-11T04:48:48;14.80;;;1.80;;
76393;SDS011;65216;51.090;-115.352;2024-01-11T04:51:19;14.10;;;1.60;;
76393;SDS011;65216;51.090;-115.352;2024-01-11T04:53:46;10.60;;;1.60;;
76393;SDS011;65216;51.090;-115.352;2024-01-11T04:56:16;18.30;;;1.50;;
76393;SDS011;65216;51.090;-115.352;2024-01-11T04:58:45;9.90;;;1.40;;
76393;SDS011;65216;51.090;-115.352;2024-01-11T05:01:13;12.60;;;1.20;;
76393;SDS011;65216;51.090;-115.352;2024-01-11T05:03:42;9.20;;;1.20;;
76393;SDS011;65216;51.090;-115.352;2024-01-11T05:06:17;7.80;;;1.00;;
76393;SDS011;65216;51.090;-115.352;2024-01-11T05:08:51;4.90;;;1.10;;
76393;SDS011;65216;51.090;-115.352;2024-01-11T05:11:22;6.00;;;0.80;;
76393;SDS011;65216;51.090;-115.352;2024-01-11T05:13:53;6.10;;;0.80;;
76393;SDS011;65216;51.090;-115.352;2024-01-11T05:16:24;3.10;;;0.60;;
76393;SDS011;65216;51.090;-115.352;2024-01-11T05:18:53;3.50;;;0.70;;
76393;SDS011;65216;51.090;-115.352;2024-01-11T05:21:24;4.40;;;0.70;;
76393;SDS011;65216;51.090;-115.352;2024-01-11T05:23:54;6.90;;;0.70;;
76393;SDS011;65216;51.090;-115.352;2024-01-11T05:26:21;4.70;;;0.80;;
76393;SDS011;65216;51.090;-115.352;2024-01-11T05:28:50;5.00;;;0.90;;
76393;SDS011;65216;51.090;-115.352;2024-01-11T05:31:17;8.50;;;0.90;;
76393;SDS011;65216;51.090;-115.352;2024-01-11T05:33:45;3.00;;;0.70;;
76393;SDS011;65216;51.090;-115.352;2024-01-11T05:36:12;4.60;;;0.80;;
76393;SDS011;65216;51.090;-115.352;2024-01-11T05:38:40;5.60;;;0.90;;
76393;SDS011;65216;51.090;-115.352;2024-01-11T05:41:07;4.70;;;0.80;;
76393;SDS011;65216;51.090;-115.352;2024-01-11T05:43:34;3.90;;;0.70;;
76393;SDS011;65216;51.090;-115.352;2024-01-11T05:46:01;2.50;;;0.60;;
76393;SDS011;65216;51.090;-115.352;2024-01-11T05:48:28;3.50;;;0.60;;
76393;SDS011;65216;51.090;-115.352;2024-01-11T05:50:55;3.70;;;0.70;;
76393;SDS011;65216;51.090;-115.352;2024-01-11T05:53:23;1.80;;;0.60;;
76393;SDS011;65216;51.090;-115.352;2024-01-11T05:55:51;4.30;;;0.70;;
76393;SDS011;65216;51.090;-115.352;2024-01-11T05:58:18;2.90;;;0.50;;
76393;SDS011;65216;51.090;-115.352;2024-01-11T06:00:46;3.10;;;0.60;;
76393;SDS011;65216;51.090;-115.352;2024-01-11T06:03:14;2.60;;;0.70;;
76393;SDS011;65216;51.090;-115.352;2024-01-11T06:05:41;2.20;;;0.60;;
76393;SDS011;65216;51.090;-115.352;2024-01-11T06:08:08;3.50;;;0.40;;
76393;SDS011;65216;51.090;-115.352;2024-01-11T06:10:35;2.70;;;0.30;;
76393;SDS011;65216;51.090;-115.352;2024-01-11T06:13:05;2.70;;;0.60;;
76393;SDS011;65216;51.090;-115.352;2024-01-11T06:15:32;1.20;;;0.40;;
76393;SDS011;65216;51.090;-115.352;2024-01-11T06:17:59;1.80;;;0.40;;
76393;SDS011;65216;51.090;-115.352;2024-01-11T06:20:30;1.50;;;0.50;;
76393;SDS011;65216;51.090;-115.352;2024-01-11T06:22:57;2.90;;;0.50;;
76393;SDS011;65216;51.090;-115.352;2024-01-11T06:25:23;1.30;;;0.40;;
76393;SDS011;65216;51.090;-115.352;2024-01-11T06:27:50;2.10;;;0.70;;
76393;SDS011;65216;51.090;-115.352;2024-01-11T06:30:17;4.90;;;0.80;;
76393;SDS011;65216;51.090;-115.352;2024-01-11T06:32:44;1.60;;;0.60;;
76393;SDS011;65216;51.090;-115.352;2024-01-11T06:35:12;3.50;;;0.50;;
76393;SDS011;65216;51.090;-115.352;2024-01-11T06:37:38;1.80;;;0.50;;
76393;SDS011;65216;51.090;-115.352;2024-01-11T06:40:08;3.00;;;0.50;;
76393;SDS011;65216;51.090;-115.352;2024-01-11T06:42:35;2.50;;;0.50;;
76393;SDS011;65216;51.090;-115.352;2024-01-11T06:45:02;2.60;;;0.50;;
76393;SDS011;65216;51.090;-115.352;2024-01-11T06:47:29;1.50;;;0.50;;
76393;SDS011;65216;51.090;-115.352;2024-01-11T06:49:56;3.00;;;0.60;;
76393;SDS011;65216;51.090;-115.352;2024-01-11T06:52:23;1.10;;;0.30;;
76393;SDS011;65216;51.090;-115.352;2024-01-11T06:54:51;2.30;;;0.40;;
76393;SDS011;65216;51.090;-115.352;2024-01-11T06:57:17;2.20;;;0.60;;
76393;SDS011;65216;51.090;-115.352;2024-01-11T06:59:45;3.50;;;0.60;;
76393;SDS011;65216;51.090;-115.352;2024-01-11T07:02:12;1.40;;;0.50;;
76393;SDS011;65216;51.090;-115.352;2024-01-11T07:04:43;1.60;;;0.50;;
76393;SDS011;65216;51.090;-115.352;2024-01-11T07:07:11;0.80;;;0.40;;
76393;SDS011;65216;51.090;-115.352;2024-01-11T07:09:38;2.10;;;0.60;;
76393;SDS011;65216;51.090;-115.352;2024-01-11T07:12:06;1.00;;;0.50;;
76393;SDS011;65216;51.090;-115.352;2024-01-11T07:14:33;1.70;;;0.50;;
76393;SDS011;65216;51.090;-115.352;2024-01-11T07:17:01;1.20;;;0.40;;
76393;SDS011;65216;51.090;-115.352;2024-01-11T07:19:29;5.10;;;0.60;;
76393;SDS011;65216;51.090;-115.352;2024-01-11T07:21:56;2.80;;;0.60;;
76393;SDS011;65216;51.090;-115.352;2024-01-11T07:24:23;2.50;;;0.50;;
76393;SDS011;65216;51.090;-115.352;2024-01-11T07:26:51;1.40;;;0.50;;
76393;SDS011;65216;51.090;-115.352;2024-01-11T07:29:17;2.40;;;0.90;;
76393;SDS011;65216;51.090;-115.352;2024-01-11T07:31:45;4.70;;;0.80;;
76393;SDS011;65216;51.090;-115.352;2024-01-11T07:34:12;1.30;;;0.50;;
76393;SDS011;65216;51.090;-115.352;2024-01-11T07:36:38;2.10;;;0.70;;
76393;SDS011;65216;51.090;-115.352;2024-01-11T07:39:05;4.20;;;0.90;;
76393;SDS011;65216;51.090;-115.352;2024-01-11T07:41:32;2.90;;;1.10;;
76393;SDS011;65216;51.090;-115.352;2024-01-11T07:43:59;1.90;;;0.60;;
76393;SDS011;65216;51.090;-115.352;2024-01-11T07:46:26;1.50;;;0.60;;
76393;SDS011;65216;51.090;-115.352;2024-01-11T07:48:53;1.50;;;0.60;;
76393;SDS011;65216;51.090;-115.352;2024-01-11T07:51:20;1.30;;;0.50;;
76393;SDS011;65216;51.090;-115.352;2024-01-11T07:53:46;1.70;;;0.60;;
76393;SDS011;65216;51.090;-115.352;2024-01-11T07:56:15;2.00;;;0.70;;
76393;SDS011;65216;51.090;-115.352;2024-01-11T07:58:44;1.70;;;0.70;;
76393;SDS011;65216;51.090;-115.352;2024-01-11T08:01:10;1.70;;;0.60;;
76393;SDS011;65216;51.090;-115.352;2024-01-11T08:03:38;2.70;;;0.60;;
76393;SDS011;65216;51.090;-115.352;2024-01-11T08:06:07;1.20;;;0.50;;
76393;SDS011;65216;51.090;-115.352;2024-01-11T08:08:35;1.70;;;0.60;;
76393;SDS011;65216;51.090;-115.352;2024-01-11T08:11:03;1.20;;;0.50;;
76393;SDS011;65216;51.090;-115.352;2024-01-11T08:13:31;1.60;;;0.50;;
76393;SDS011;65216;51.090;-115.352;2024-01-11T08:15:57;1.80;;;0.40;;
76393;SDS011;65216;51.090;-115.352;2024-01-11T08:18:24;1.50;;;0.50;;
76393;SDS011;65216;51.090;-115.352;2024-01-11T08:20:52;1.20;;;0.50;;
76393;SDS011;65216;51.090;-115.352;2024-01-11T08:23:19;1.00;;;0.50;;
76393;SDS011;65216;51.090;-115.352;2024-01-11T08:25:46;1.00;;;0.50;;
76393;SDS011;65216;51.090;-115.352;2024-01-11T08:28:15;0.90;;;0.50;;
76393;SDS011;65216;51.090;-115.352;2024-01-11T08:30:43;0.40;;;0.30;;
76393;SDS011;65216;51.090;-115.352;2024-01-11T08:33:13;1.10;;;0.40;;
76393;SDS011;65216;51.090;-115.352;2024-01-11T08:35:39;1.00;;;0.50;;
76393;SDS011;65216;51.090;-115.352;2024-01-11T08:38:07;1.20;;;0.50;;
76393;SDS011;65216;51.090;-115.352;2024-01-11T08:40:34;0.70;;;0.30;;
76393;SDS011;65216;51.090;-115.352;2024-01-11T08:43:01;0.90;;;0.30;;
76393;SDS011;65216;51.090;-115.352;2024-01-11T08:45:28;0.80;;;0.40;;
76393;SDS011;65216;51.090;-115.352;2024-01-11T08:47:56;0.60;;;0.20;;
76393;SDS011;65216;51.090;-115.352;2024-01-11T08:50:23;1.50;;;0.50;;
76393;SDS011;65216;51.090;-115.352;2024-01-11T08:52:50;0.70;;;0.30;;
76393;SDS011;65216;51.090;-115.352;2024-01-11T08:55:17;1.20;;;0.50;;
76393;SDS011;65216;51.090;-115.352;2024-01-11T08:57:43;0.90;;;0.30;;
76393;SDS011;65216;51.090;-115.352;2024-01-11T09:00:11;0.50;;;0.30;;
76393;SDS011;65216;51.090;-115.352;2024-01-11T09:02:44;1.10;;;0.40;;
76393;SDS011;65216;51.090;-115.352;2024-01-11T09:05:16;1.10;;;0.40;;
76393;SDS011;65216;51.090;-115.352;2024-01-11T09:07:43;0.70;;;0.40;;
76393;SDS011;65216;51.090;-115.352;2024-01-11T09:10:10;1.90;;;0.40;;
76393;SDS011;65216;51.090;-115.352;2024-01-11T09:12:38;0.90;;;0.50;;
76393;SDS011;65216;51.090;-115.352;2024-01-11T09:15:06;0.90;;;0.40;;
76393;SDS011;65216;51.090;-115.352;2024-01-11T09:17:33;1.40;;;0.30;;
76393;SDS011;65216;51.090;-115.352;2024-01-11T09:20:03;0.70;;;0.30;;
76393;SDS011;65216;51.090;-115.352;2024-01-11T09:22:31;0.90;;;0.40;;
76393;SDS011;65216;51.090;-115.352;2024-01-11T09:24:58;0.80;;;0.30;;
76393;SDS011;65216;51.090;-115.352;2024-01-11T09:27:25;1.00;;;0.40;;
76393;SDS011;65216;51.090;-115.352;2024-01-11T09:29:51;1.00;;;0.40;;
76393;SDS011;65216;51.090;-115.352;2024-01-11T09:32:23;0.80;;;0.40;;
76393;SDS011;65216;51.090;-115.352;2024-01-11T09:34:51;0.40;;;0.20;;
76393;SDS011;65216;51.090;-115.352;2024-01-11T09:37:18;0.90;;;0.30;;
76393;SDS011;65216;51.090;-115.352;2024-01-11T09:39:45;1.00;;;0.50;;
76393;SDS011;65216;51.090;-115.352;2024-01-11T09:42:13;1.00;;;0.60;;
76393;SDS011;65216;51.090;-115.352;2024-01-11T09:44:41;0.70;;;0.30;;
76393;SDS011;65216;51.090;-115.352;2024-01-11T09:47:10;0.70;;;0.30;;
76393;SDS011;65216;51.090;-115.352;2024-01-11T09:49:39;0.30;;;0.30;;
76393;SDS011;65216;51.090;-115.352;2024-01-11T09:52:09;1.50;;;0.50;;
76393;SDS011;65216;51.090;-115.352;2024-01-11T09:54:39;1.00;;;0.40;;
76393;SDS011;65216;51.090;-115.352;2024-01-11T09:57:09;0.80;;;0.30;;
76393;SDS011;65216;51.090;-115.352;2024-01-11T09:59:37;1.40;;;0.40;;
76393;SDS011;65216;51.090;-115.352;2024-01-11T10:02:04;1.00;;;0.50;;
76393;SDS011;65216;51.090;-115.352;2024-01-11T10:04:33;1.20;;;0.60;;
76393;SDS011;65216;51.090;-115.352;2024-01-11T10:07:01;0.50;;;0.30;;
76393;SDS011;65216;51.090;-115.352;2024-01-11T10:09:34;0.60;;;0.30;;
76393;SDS011;65216;51.090;-115.352;2024-01-11T10:12:02;0.80;;;0.40;;
76393;SDS011;65216;51.090;-115.352;2024-01-11T10:14:30;0.70;;;0.30;;
76393;SDS011;65216;51.090;-115.352;2024-01-11T10:16:58;1.10;;;0.30;;
76393;SDS011;65216;51.090;-115.352;2024-01-11T10:19:24;0.70;;;0.40;;
76393;SDS011;65216;51.090;-115.352;2024-01-11T10:21:51;0.50;;;0.30;;
76393;SDS011;65216;51.090;-115.352;2024-01-11T10:24:19;0.90;;;0.30;;
76393;SDS011;65216;51.090;-115.352;2024-01-11T10:26:48;0.70;;;0.30;;
76393;SDS011;65216;51.090;-115.352;2024-01-11T10:29:14;0.60;;;0.30;;
76393;SDS011;65216;51.090;-115.352;2024-01-11T10:31:44;0.40;;;0.30;;
76393;SDS011;65216;51.090;-115.352;2024-01-11T10:34:11;1.00;;;0.40;;
76393;SDS011;65216;51.090;-115.352;2024-01-11T10:36:39;0.90;;;0.50;;
76393;SDS011;65216;51.090;-115.352;2024-01-11T10:39:08;1.00;;;0.40;;
76393;SDS011;65216;51.090;-115.352;2024-01-11T10:41:41;0.50;;;0.40;;
76393;SDS011;65216;51.090;-115.352;2024-01-11T10:44:20;0.50;;;0.20;;
76393;SDS011;65216;51.090;-115.352;2024-01-11T10:46:50;0.90;;;0.50;;
76393;SDS011;65216;51.090;-115.352;2024-01-11T10:49:23;1.60;;;0.30;;
76393;SDS011;65216;51.090;-115.352;2024-01-11T10:52:00;0.60;;;0.30;;
76393;SDS011;65216;51.090;-115.352;2024-01-11T10:54:31;0.50;;;0.30;;
76393;SDS011;65216;51.090;-115.352;2024-01-11T10:57:00;1.10;;;0.50;;
76393;SDS011;65216;51.090;-115.352;2024-01-11T10:59:31;0.80;;;0.30;;
76393;SDS011;65216;51.090;-115.352;2024-01-11T11:02:04;1.10;;;0.40;;
76393;SDS011;65216;51.090;-115.352;2024-01-11T11:04:42;0.60;;;0.30;;
76393;SDS011;65216;51.090;-115.352;2024-01-11T11:07:10;0.50;;;0.20;;
76393;SDS011;65216;51.090;-115.352;2024-01-11T11:09:38;0.60;;;0.20;;
76393;SDS011;65216;51.090;-115.352;2024-01-11T11:12:11;0.80;;;0.40;;
76393;SDS011;65216;51.090;-115.352;2024-01-11T11:14:41;0.70;;;0.20;;
76393;SDS011;65216;51.090;-115.352;2024-01-11T11:17:10;0.30;;;0.30;;
76393;SDS011;65216;51.090;-115.352;2024-01-11T11:19:36;0.80;;;0.50;;
76393;SDS011;65216;51.090;-115.352;2024-01-11T11:22:05;0.30;;;0.20;;
76393;SDS011;65216;51.090;-115.352;2024-01-11T11:24:34;1.40;;;0.50;;
76393;SDS011;65216;51.090;-115.352;2024-01-11T11:27:02;1.00;;;0.30;;
76393;SDS011;65216;51.090;-115.352;2024-01-11T11:29:29;1.80;;;0.30;;
76393;SDS011;65216;51.090;-115.352;2024-01-11T11:31:56;0.80;;;0.40;;
76393;SDS011;65216;51.090;-115.352;2024-01-11T11:34:42;0.40;;;0.20;;
76393;SDS011;65216;51.090;-115.352;2024-01-11T11:37:12;0.30;;;0.30;;
76393;SDS011;65216;51.090;-115.352;2024-01-11T11:39:50;0.40;;;0.30;;
76393;SDS011;65216;51.090;-115.352;2024-01-11T11:42:16;0.60;;;0.20;;
76393;SDS011;65216;51.090;-115.352;2024-01-11T11:44:49;0.40;;;0.20;;
76393;SDS011;65216;51.090;-115.352;2024-01-11T11:47:22;0.80;;;0.30;;
76393;SDS011;65216;51.090;-115.352;2024-01-11T11:52:40;0.80;;;0.20;;
76393;SDS011;65216;51.090;-115.352;2024-01-11T11:55:10;0.20;;;0.20;;
76393;SDS011;65216;51.090;-115.352;2024-01-11T11:57:38;0.30;;;0.30;;
76393;SDS011;65216;51.090;-115.352;2024-01-11T12:00:11;0.60;;;0.40;;
76393;SDS011;65216;51.090;-115.352;2024-01-11T12:02:38;0.50;;;0.30;;
76393;SDS011;65216;51.090;-115.352;2024-01-11T12:05:06;0.50;;;0.20;;
76393;SDS011;65216;51.090;-115.352;2024-01-11T12:07:34;0.30;;;0.20;;
76393;SDS011;65216;51.090;-115.352;2024-01-11T12:10:01;1.10;;;0.40;;
76393;SDS011;65216;51.090;-115.352;2024-01-11T12:12:28;0.40;;;0.10;;
76393;SDS011;65216;51.090;-115.352;2024-01-11T12:14:55;0.20;;;0.10;;
76393;SDS011;65216;51.090;-115.352;2024-01-11T12:17:24;0.30;;;0.20;;
76393;SDS011;65216;51.090;-115.352;2024-01-11T12:19:52;0.20;;;0.20;;
76393;SDS011;65216;51.090;-115.352;2024-01-11T12:22:19;0.40;;;0.20;;
76393;SDS011;65216;51.090;-115.352;2024-01-11T12:24:46;0.10;;;0.10;;
76393;SDS011;65216;51.090;-115.352;2024-01-11T12:27:13;1.00;;;0.30;;
76393;SDS011;65216;51.090;-115.352;2024-01-11T12:29:42;0.40;;;0.20;;
76393;SDS011;65216;51.090;-115.352;2024-01-11T12:32:09;0.50;;;0.30;;
76393;SDS011;65216;51.090;-115.352;2024-01-11T12:34:42;0.20;;;0.20;;
76393;SDS011;65216;51.090;-115.352;2024-01-11T12:37:10;0.30;;;0.20;;
76393;SDS011;65216;51.090;-115.352;2024-01-11T12:39:40;0.40;;;0.20;;
76393;SDS011;65216;51.090;-115.352;2024-01-11T12:42:07;0.90;;;0.30;;
76393;SDS011;65216;51.090;-115.352;2024-01-11T12:44:35;0.40;;;0.20;;
76393;SDS011;65216;51.090;-115.352;2024-01-11T12:47:03;0.40;;;0.20;;
76393;SDS011;65216;51.090;-115.352;2024-01-11T12:49:31;0.30;;;0.10;;
76393;SDS011;65216;51.090;-115.352;2024-01-11T12:51:58;0.40;;;0.30;;
76393;SDS011;65216;51.090;-115.352;2024-01-11T12:54:26;0.60;;;0.20;;
76393;SDS011;65216;51.090;-115.352;2024-01-11T12:56:53;0.80;;;0.30;;
76393;SDS011;65216;51.090;-115.352;2024-01-11T12:59:25;0.40;;;0.20;;
76393;SDS011;65216;51.090;-115.352;2024-01-11T13:01:52;0.30;;;0.30;;
76393;SDS011;65216;51.090;-115.352;2024-01-11T13:04:19;0.20;;;0.20;;
76393;SDS011;65216;51.090;-115.352;2024-01-11T13:06:47;0.70;;;0.20;;
76393;SDS011;65216;51.090;-115.352;2024-01-11T13:09:14;2.00;;;0.40;;
76393;SDS011;65216;51.090;-115.352;2024-01-11T13:11:41;2.10;;;0.30;;
76393;SDS011;65216;51.090;-115.352;2024-01-11T13:14:09;0.60;;;0.30;;
76393;SDS011;65216;51.090;-115.352;2024-01-11T13:16:40;1.00;;;0.30;;
76393;SDS011;65216;51.090;-115.352;2024-01-11T13:19:07;0.50;;;0.30;;
76393;SDS011;65216;51.090;-115.352;2024-01-11T13:21:34;0.60;;;0.30;;
76393;SDS011;65216;51.090;-115.352;2024-01-11T13:24:01;0.40;;;0.20;;
76393;SDS011;65216;51.090;-115.352;2024-01-11T13:26:28;0.60;;;0.20;;
76393;SDS011;65216;51.090;-115.352;2024-01-11T13:28:55;0.30;;;0.30;;
76393;SDS011;65216;51.090;-115.352;2024-01-11T13:31:22;0.60;;;0.30;;
76393;SDS011;65216;51.090;-115.352;2024-01-11T13:33:49;0.40;;;0.20;;
76393;SDS011;65216;51.090;-115.352;2024-01-11T13:36:18;0.40;;;0.20;;
76393;SDS011;65216;51.090;-115.352;2024-01-11T13:38:45;0.60;;;0.20;;
76393;SDS011;65216;51.090;-115.352;2024-01-11T13:41:13;0.20;;;0.20;;
76393;SDS011;65216;51.090;-115.352;2024-01-11T13:43:40;0.50;;;0.20;;
76393;SDS011;65216;51.090;-115.352;2024-01-11T13:46:07;1.60;;;0.20;;
76393;SDS011;65216;51.090;-115.352;2024-01-11T13:48:35;0.30;;;0.20;;
76393;SDS011;65216;51.090;-115.352;2024-01-11T13:51:02;0.90;;;0.30;;
76393;SDS011;65216;51.090;-115.352;2024-01-11T13:53:29;0.50;;;0.20;;
76393;SDS011;65216;51.090;-115.352;2024-01-11T13:55:58;0.70;;;0.20;;
76393;SDS011;65216;51.090;-115.352;2024-01-11T13:58:28;0.40;;;0.20;;
76393;SDS011;65216;51.090;-115.352;2024-01-11T14:00:55;0.80;;;0.20;;
76393;SDS011;65216;51.090;-115.352;2024-01-11T14:03:22;0.10;;;0.10;;
76393;SDS011;65216;51.090;-115.352;2024-01-11T14:05:50;0.40;;;0.20;;
76393;SDS011;65216;51.090;-115.352;2024-01-11T14:08:17;0.40;;;0.20;;
76393;SDS011;65216;51.090;-115.352;2024-01-11T14:10:44;0.50;;;0.20;;
76393;SDS011;65216;51.090;-115.352;2024-01-11T14:13:13;0.70;;;0.30;;